Time;durP1;ratioP1;P1;durP2;ratioP2;P2;SDS_P1;SDS_P2;PMS_P1;PMS_P2;Temp;Humidity;BMP_temperature;BMP_pressure;BME280_temperature;BME280_humidity;BME280_pressure;Samples;Min_cycle;Max_cycle;Signal;HPM_P1;HPM_P2
2020/12/24 00:03:04;;;;;;;5.82;1.38;;;16.10;57.70;;;;;;4862087;29;20041;-78
2020/12/24 00:05:59;;;;;;;4.45;0.90;;;16.10;57.60;;;;;;4861807;29;20064;-79
2020/12/24 00:08:48;;;;;;;4.18;0.70;;;16.10;57.60;;;;;;4863732;29;20124;-80
2020/12/24 00:11:59;;;;;;;4.95;1.20;;;16.10;57.50;;;;;;4876648;29;20050;-79
2020/12/24 00:14:34;;;;;;;4.25;0.55;;;16.10;57.50;;;;;;4851880;29;20057;-77
2020/12/24 00:17:19;;;;;;;3.47;0.50;;;16.00;57.40;;;;;;4876599;29;20052;-79
2020/12/24 00:20:34;;;;;;;3.55;0.63;;;16.00;57.40;;;;;;4876024;29;20041;-78
2020/12/24 00:23:19;;;;;;;3.33;0.50;;;16.00;57.30;;;;;;4861839;29;20038;-78
2020/12/24 00:26:00;;;;;;;2.15;0.40;;;16.00;57.10;;;;;;4875538;29;20046;-79
2020/12/24 00:29:05;;;;;;;;;;;;;;;;;;;;;
2020/12/24 00:32:03;;;;;;;1.85;0.40;;;16.00;57.70;;;;;;4812051;29;20461;-79
2020/12/24 00:34:59;;;;;;;2.75;0.47;;;16.00;57.00;;;;;;4806154;29;20602;-78
2020/12/24 00:38:25;;;;;;;4.18;0.45;;;16.00;56.90;;;;;;4824852;29;20053;-78
2020/12/24 00:41:29;;;;;;;3.08;0.40;;;15.90;56.90;;;;;;4843314;29;20083;-78
2020/12/24 00:44:26;;;;;;;;;;;;;;;;;;;;;
2020/12/24 00:47:16;;;;;;;7.32;0.85;;;15.90;57.10;;;;;;4843376;29;20350;-78
2020/12/24 00:50:23;;;;;;;1.98;0.38;;;15.90;56.90;;;;;;4833037;29;20053;-78
2020/12/24 00:56:33;;;;;;;3.50;0.32;;;15.90;56.70;;;;;;4849418;29;20048;-79
2020/12/24 01:00:04;;;;;;;2.00;0.30;;;15.90;56.70;;;;;;4834564;29;20150;-78
2020/12/24 01:03:08;;;;;;;2.78;0.30;;;15.80;56.60;;;;;;4834494;29;20110;-78
2020/12/24 01:06:00;;;;;;;;;;;15.90;56.60;;;;;;4835671;29;20464;-78
2020/12/24 01:12:44;;;;;;;3.90;1.00;;;15.80;56.70;;;;;;4836777;29;20113;-78
2020/12/24 01:16:02;;;;;;;2.47;0.60;;;15.80;56.60;;;;;;4848747;29;20042;-79
2020/12/24 01:19:35;;;;;;;1.55;0.20;;;15.70;56.50;;;;;;4849188;29;20056;-78
2020/12/24 01:22:31;;;;;;;1.30;0.28;;;15.80;56.60;;;;;;4845560;29;20054;-79
2020/12/24 01:25:54;;;;;;;2.55;0.60;;;15.80;56.60;;;;;;4848909;29;20053;-78
2020/12/24 01:28:47;;;;;;;1.50;0.32;;;15.70;56.50;;;;;;4835005;29;20105;-78
2020/12/24 01:31:49;;;;;;;3.97;0.50;;;15.70;56.50;;;;;;4834805;29;20049;-77
2020/12/24 01:34:56;;;;;;;2.78;0.52;;;15.70;56.50;;;;;;4864737;29;20053;-78
2020/12/24 01:37:41;;;;;;;5.22;0.63;;;15.70;56.40;;;;;;4867167;29;20038;-77
2020/12/24 01:40:18;;;;;;;1.58;0.40;;;15.70;56.50;;;;;;4881861;29;20074;-79
2020/12/24 01:43:29;;;;;;;1.83;0.30;;;15.70;56.50;;;;;;4880957;29;20048;-77
2020/12/24 01:46:05;;;;;;;2.72;0.70;;;15.70;56.40;;;;;;4883606;29;20080;-77
2020/12/24 01:48:47;;;;;;;4.50;0.45;;;15.70;56.50;;;;;;4881925;29;20120;-78
2020/12/24 01:51:31;;;;;;;4.03;0.43;;;15.60;56.30;;;;;;4882569;29;20041;-78
2020/12/24 01:54:24;;;;;;;2.53;0.40;;;15.70;56.30;;;;;;4880112;29;20471;-78
2020/12/24 01:57:32;;;;;;;2.58;0.45;;;15.60;56.30;;;;;;4881309;29;20042;-78
2020/12/24 02:00:41;;;;;;;1.90;0.28;;;15.60;56.30;;;;;;4873376;29;20113;-78
2020/12/24 02:03:44;;;;;;;3.30;0.60;;;15.60;56.20;;;;;;4846281;29;20056;-78
2020/12/24 02:06:35;;;;;;;1.58;0.45;;;15.60;56.30;;;;;;4864646;29;20421;-79
2020/12/24 02:09:24;;;;;;;2.58;0.75;;;15.60;56.30;;;;;;4878000;29;20061;-79
2020/12/24 02:12:36;;;;;;;1.65;0.28;;;15.60;56.20;;;;;;4863161;29;20034;-78
2020/12/24 02:15:42;;;;;;;2.78;0.60;;;15.50;56.10;;;;;;4865124;29;20061;-78
2020/12/24 02:18:37;;;;;;;2.85;0.40;;;15.60;56.20;;;;;;4878674;29;20045;-78
2020/12/24 02:21:08;;;;;;;4.57;0.40;;;15.60;56.20;;;;;;4863943;29;20042;-78
2020/12/24 02:24:02;;;;;;;1.85;0.55;;;15.50;56.10;;;;;;4863747;29;20363;-78
2020/12/24 02:26:49;;;;;;;;;;;;;;;;;;;;;
2020/12/24 02:29:37;;;;;;;3.45;0.40;;;15.50;56.10;;;;;;4864728;29;20371;-78
2020/12/24 02:32:27;;;;;;;3.10;0.50;;;15.50;56.10;;;;;;4863733;29;20058;-78
2020/12/24 02:35:08;;;;;;;1.70;0.22;;;15.50;56.00;;;;;;4863775;29;20053;-79
2020/12/24 02:38:12;;;;;;;2.30;0.45;;;15.50;56.00;;;;;;4862572;29;20424;-78
2020/12/24 02:40:52;;;;;;;2.05;0.40;;;15.50;56.00;;;;;;4863595;29;20504;-78
2020/12/24 02:43:47;;;;;;;;;;;;;;;;;;;;;
2020/12/24 02:46:32;;;;;;;1.55;0.40;;;15.50;55.90;;;;;;4864091;29;20061;-77
2020/12/24 02:49:35;;;;;;;3.83;0.68;;;15.50;56.00;;;;;;4863485;29;20037;-78
2020/12/24 02:52:22;;;;;;;2.85;0.50;;;15.40;55.90;;;;;;4863855;29;20051;-77
2020/12/24 02:55:20;;;;;;;1.33;0.30;;;15.50;55.90;;;;;;4877535;29;20049;-78
2020/12/24 02:58:07;;;;;;;;;;;;;;;;;;;;;
2020/12/24 03:00:38;;;;;;;3.20;0.47;;;15.40;55.90;;;;;;4863850;29;20046;-78
2020/12/24 03:03:26;;;;;;;4.00;0.47;;;15.40;55.90;;;;;;4877727;29;20037;-78
2020/12/24 03:06:24;;;;;;;2.47;0.30;;;15.40;55.80;;;;;;4877076;29;20041;-78
2020/12/24 03:09:59;;;;;;;;;;;;;;;;;;;;;
2020/12/24 03:13:18;;;;;;;;;;;;;;;;;;;;;
2020/12/24 03:19:37;;;;;;;;;;;;;;;;;;;;;
2020/12/24 03:22:46;;;;;;;1.77;0.35;;;15.40;55.70;;;;;;4837175;29;20053;-78
2020/12/24 03:25:57;;;;;;;;;;;;;;;;;;;;;
2020/12/24 03:29:05;;;;;;;1.80;0.38;;;15.40;55.70;;;;;;4863539;29;20106;-78
2020/12/24 03:32:23;;;;;;;2.72;0.63;;;15.40;55.70;;;;;;4874476;29;20042;-78
2020/12/24 03:35:29;;;;;;;2.50;0.55;;;15.30;55.60;;;;;;4860321;29;20448;-77
2020/12/24 03:38:19;;;;;;;1.88;0.28;;;15.40;55.60;;;;;;4877194;29;20534;-79
2020/12/24 03:41:22;;;;;;;3.78;0.77;;;15.40;55.60;;;;;;4876205;29;20045;-78
2020/12/24 03:47:58;;;;;;;3.95;0.28;;;15.30;55.80;;;;;;4866451;29;19920;-78
2020/12/24 03:51:39;;;;;;;1.58;0.50;;;15.20;55.70;;;;;;4861599;29;20060;-78
2020/12/24 03:58:00;;;;;;;3.03;0.50;;;15.30;55.70;;;;;;4842566;29;20073;-78
2020/12/24 04:01:30;;;;;;;2.55;0.43;;;15.20;55.70;;;;;;4862921;29;20041;-78
2020/12/24 04:04:53;;;;;;;3.15;0.60;;;15.20;55.70;;;;;;4863874;29;20053;-79
2020/12/24 04:11:02;;;;;;;1.95;0.20;;;15.20;55.70;;;;;;4860329;29;20050;-78
2020/12/24 04:14:15;;;;;;;3.15;0.40;;;15.20;55.60;;;;;;4877123;29;20165;-79
2020/12/24 04:17:19;;;;;;;;;;;;;;;;;;;;;
2020/12/24 04:20:59;;;;;;;;;;;;;;;;;;;;;
2020/12/24 04:24:18;;;;;;;2.85;0.40;;;15.30;56.30;;;;;;4859515;29;20125;-78
2020/12/24 04:27:58;;;;;;;1.75;0.30;;;15.20;55.60;;;;;;4843123;29;20049;-78
2020/12/24 04:31:38;;;;;;;;;;;;;;;;;;;;;
2020/12/24 04:35:03;;;;;;;1.30;0.50;;;15.20;55.50;;;;;;4850417;29;20486;-78
2020/12/24 04:38:47;;;;;;;;;;;;;;;;;;;;;
2020/12/24 04:42:49;;;;;;;;;;;;;;;;;;;;;
2020/12/24 04:50:12;;;;;;;;;;;15.20;55.50;;;;;;4788159;29;20381;-78
2020/12/24 04:53:55;;;;;;;;;;;;;;;;;;;;;
2020/12/24 04:57:27;;;;;;;2.67;0.28;;;15.20;55.70;;;;;;4851258;29;20034;-78
2020/12/24 05:00:57;;;;;;;0.80;0.20;;;15.10;55.70;;;;;;4874750;29;20034;-78
2020/12/24 05:19:23;;;;;;;3.55;0.40;;;15.10;55.70;;;;;;4868896;29;20417;-78
2020/12/24 05:21:52;;;;;;;3.38;0.40;;;15.20;56.40;;;;;;4878578;29;20037;-78
2020/12/24 05:24:33;;;;;;;4.65;0.50;;;15.20;57.00;;;;;;4850536;29;20049;-78
2020/12/24 05:27:11;;;;;;;5.88;0.50;;;15.20;57.40;;;;;;4860863;29;20111;-79
2020/12/24 05:29:41;;;;;;;3.65;0.43;;;15.30;57.60;;;;;;4860715;29;20038;-76
2020/12/24 05:32:08;;;;;;;6.25;0.50;;;15.40;57.60;;;;;;4861906;29;20114;-80
2020/12/24 05:34:35;;;;;;;10.43;0.60;;;15.50;57.90;;;;;;4861240;29;20475;-79
2020/12/24 05:37:18;;;;;;;8.93;0.80;;;15.60;58.10;;;;;;4846319;29;20057;-79
2020/12/24 05:39:46;;;;;;;8.15;0.60;;;15.70;58.40;;;;;;4864526;29;20076;-79
2020/12/24 05:42:12;;;;;;;15.68;1.02;;;15.80;58.50;;;;;;4864269;29;20041;-77
2020/12/24 05:44:38;;;;;;;6.57;0.93;;;16.00;58.80;;;;;;4848515;29;20080;-79
2020/12/24 05:47:07;;;;;;;11.25;0.90;;;16.10;59.50;;;;;;4863918;29;20046;-79
2020/12/24 05:49:34;;;;;;;10.85;0.70;;;16.20;58.90;;;;;;4864980;29;20061;-82
2020/12/24 05:52:02;;;;;;;5.32;0.60;;;16.30;59.10;;;;;;4864572;29;20041;-80
2020/12/24 05:54:29;;;;;;;8.60;0.82;;;16.40;59.20;;;;;;4865454;29;20080;-79
2020/12/24 05:56:57;;;;;;;9.13;0.60;;;16.50;59.40;;;;;;4865377;29;20468;-76
2020/12/24 05:59:24;;;;;;;7.85;0.80;;;16.60;59.50;;;;;;4864919;29;20416;-79
2020/12/24 06:02:14;;;;;;;7.07;0.40;;;16.60;59.60;;;;;;4864585;29;20129;-78
2020/12/24 06:04:45;;;;;;;6.78;0.75;;;16.60;59.90;;;;;;4864858;29;20053;-80
2020/12/24 06:07:20;;;;;;;7.18;0.77;;;16.70;59.80;;;;;;4864009;29;20069;-77
2020/12/24 06:09:51;;;;;;;6.72;0.57;;;16.80;60.10;;;;;;4864294;29;20088;-78
2020/12/24 06:12:24;;;;;;;6.88;1.13;;;16.80;60.10;;;;;;4864672;29;20049;-79
2020/12/24 06:14:53;;;;;;;6.03;1.27;;;16.80;60.10;;;;;;4864721;29;20102;-79
2020/12/24 06:17:21;;;;;;;8.10;0.75;;;16.80;60.00;;;;;;4864306;29;20073;-77
2020/12/24 06:19:48;;;;;;;5.45;0.73;;;16.90;60.00;;;;;;4865174;29;20124;-78
2020/12/24 06:22:18;;;;;;;7.28;1.30;;;16.90;60.00;;;;;;4863005;29;20473;-75
2020/12/24 06:24:52;;;;;;;12.27;1.02;;;17.00;60.00;;;;;;4854804;29;20050;-76
2020/12/24 06:27:40;;;;;;;8.07;1.27;;;17.00;59.90;;;;;;4864241;29;20455;-75
2020/12/24 06:30:10;;;;;;;6.82;0.50;;;17.00;59.80;;;;;;4863575;29;20076;-77
2020/12/24 06:32:40;;;;;;;11.10;1.50;;;17.00;59.70;;;;;;4864632;29;20070;-76
2020/12/24 06:35:06;;;;;;;7.10;0.70;;;17.00;59.70;;;;;;4864804;29;20137;-76
2020/12/24 06:37:40;;;;;;;8.75;1.10;;;17.10;59.80;;;;;;4864622;29;20060;-82
2020/12/24 06:40:07;;;;;;;5.78;0.60;;;17.00;59.60;;;;;;4864545;29;20049;-80
2020/12/24 06:42:36;;;;;;;5.18;0.80;;;17.00;59.50;;;;;;4864243;29;20045;-78
2020/12/24 06:45:12;;;;;;;7.93;0.82;;;17.00;59.50;;;;;;4864475;29;20447;-77
2020/12/24 06:47:39;;;;;;;9.23;0.73;;;17.00;59.40;;;;;;4863577;29;20061;-75
2020/12/24 06:50:35;;;;;;;8.95;0.98;;;17.00;59.40;;;;;;4863765;29;20053;-78
2020/12/24 06:53:19;;;;;;;8.23;1.08;;;17.10;59.50;;;;;;4862032;29;20057;-77
2020/12/24 06:56:05;;;;;;;6.22;0.60;;;17.00;59.60;;;;;;4863894;29;20060;-76
2020/12/24 06:58:38;;;;;;;3.72;0.65;;;17.00;59.70;;;;;;4863248;29;20045;-76
2020/12/24 07:01:04;;;;;;;7.95;0.50;;;17.10;59.70;;;;;;4864155;29;20384;-77
2020/12/24 07:03:30;;;;;;;5.97;0.80;;;17.00;59.70;;;;;;4863597;29;20105;-77
2020/12/24 07:05:56;;;;;;;6.07;1.00;;;17.10;59.80;;;;;;4863750;29;20459;-78
2020/12/24 07:08:48;;;;;;;8.05;1.02;;;17.10;59.80;;;;;;4863222;29;20050;-77
2020/12/24 07:11:49;;;;;;;8.63;1.65;;;17.10;59.80;;;;;;4862183;29;20148;-77
2020/12/24 07:14:25;;;;;;;8.77;1.00;;;17.10;59.80;;;;;;4861083;29;20042;-75
2020/12/24 07:16:54;;;;;;;8.55;1.25;;;17.10;60.10;;;;;;4859961;29;20049;-77
2020/12/24 07:19:23;;;;;;;13.85;1.30;;;17.20;60.00;;;;;;4858007;29;20391;-74
2020/12/24 07:21:51;;;;;;;11.43;1.10;;;17.20;60.00;;;;;;4854849;29;20049;-74
2020/12/24 07:24:28;;;;;;;11.77;0.88;;;17.20;59.90;;;;;;4860792;29;20061;-79
2020/12/24 07:26:59;;;;;;;7.82;1.27;;;17.20;59.90;;;;;;4862552;29;20068;-75
2020/12/24 07:29:28;;;;;;;8.60;0.85;;;17.30;60.00;;;;;;4860279;29;20057;-76
2020/12/24 07:31:55;;;;;;;7.22;1.00;;;17.30;60.00;;;;;;4863006;29;20073;-76
2020/12/24 07:34:29;;;;;;;11.15;1.02;;;17.30;60.00;;;;;;4861064;29;20475;-79
2020/12/24 07:36:55;;;;;;;20.00;1.42;;;17.40;60.00;;;;;;4864080;29;20073;-76
2020/12/24 07:39:21;;;;;;;14.68;1.60;;;17.40;59.90;;;;;;4862866;29;20076;-75
2020/12/24 07:41:47;;;;;;;13.18;1.70;;;17.50;59.90;;;;;;4862309;29;20049;-76
2020/12/24 07:44:16;;;;;;;12.35;1.50;;;17.50;59.80;;;;;;4863911;29;20054;-76
2020/12/24 07:46:42;;;;;;;14.77;1.80;;;17.50;59.80;;;;;;4861712;29;20408;-76
2020/12/24 07:49:08;;;;;;;11.98;1.33;;;17.60;59.80;;;;;;4877960;29;20140;-76
2020/12/24 07:51:34;;;;;;;13.43;1.40;;;17.60;59.60;;;;;;4862600;29;20519;-74
2020/12/24 07:54:17;;;;;;;12.45;1.15;;;17.70;59.50;;;;;;4862685;29;20056;-76
2020/12/24 07:56:47;;;;;;;19.95;1.50;;;17.70;59.40;;;;;;4848299;29;20053;-77
2020/12/24 07:59:16;;;;;;;13.55;1.83;;;17.80;59.50;;;;;;4857936;29;20364;-74
2020/12/24 08:01:42;;;;;;;12.00;1.67;;;17.80;59.40;;;;;;4861559;29;20113;-77
2020/12/24 08:04:08;;;;;;;14.18;1.48;;;17.80;59.40;;;;;;4863025;29;20063;-76
2020/12/24 08:06:37;;;;;;;13.43;1.58;;;17.80;59.30;;;;;;4862651;29;20057;-81
2020/12/24 08:09:13;;;;;;;18.48;1.63;;;17.90;59.60;;;;;;4843498;29;20441;-77
2020/12/24 08:11:41;;;;;;;11.85;1.15;;;17.90;59.80;;;;;;4859640;29;20045;-77
2020/12/24 08:14:07;;;;;;;13.80;1.08;;;17.80;59.80;;;;;;4861258;29;20152;-77
2020/12/24 08:16:40;;;;;;;11.52;1.58;;;17.80;59.80;;;;;;4861075;29;20094;-77
2020/12/24 08:19:34;;;;;;;12.63;1.45;;;17.80;59.70;;;;;;4860805;29;20092;-77
2020/12/24 08:22:14;;;;;;;14.07;0.95;;;17.80;59.60;;;;;;4862548;29;20037;-77
2020/12/24 08:24:51;;;;;;;10.25;1.00;;;17.80;59.70;;;;;;4861344;29;20049;-76
2020/12/24 08:27:17;;;;;;;15.15;2.55;;;17.80;59.80;;;;;;4856812;29;20046;-76
2020/12/24 08:29:45;;;;;;;10.15;1.02;;;17.80;59.70;;;;;;4862114;29;20046;-76
2020/12/24 08:32:12;;;;;;;15.40;1.38;;;17.80;59.70;;;;;;4858611;29;20467;-76
2020/12/24 08:34:38;;;;;;;20.35;1.30;;;17.90;59.80;;;;;;4874241;29;20383;-76
2020/12/24 08:37:10;;;;;;;11.43;1.80;;;17.90;59.70;;;;;;4861402;29;20045;-75
2020/12/24 08:39:38;;;;;;;11.90;1.20;;;17.90;60.00;;;;;;4862273;29;20098;-77
2020/12/24 08:42:16;;;;;;;18.75;1.83;;;17.90;60.20;;;;;;4861210;29;20416;-75
2020/12/24 08:44:42;;;;;;;20.35;2.05;;;17.90;60.20;;;;;;4862282;29;20061;-76
2020/12/24 08:47:09;;;;;;;14.50;1.38;;;17.90;60.30;;;;;;4862516;29;20108;-77
2020/12/24 08:49:43;;;;;;;12.48;1.60;;;17.90;60.30;;;;;;4861733;29;20041;-76
2020/12/24 08:52:36;;;;;;;11.25;1.25;;;17.90;60.70;;;;;;4861489;29;20072;-76
2020/12/24 08:55:09;;;;;;;10.25;1.45;;;17.90;60.50;;;;;;4861460;29;20048;-75
2020/12/24 08:57:36;;;;;;;12.25;1.50;;;17.90;60.60;;;;;;4861949;29;20073;-76
2020/12/24 09:00:12;;;;;;;12.30;1.00;;;18.00;60.70;;;;;;4862011;29;20033;-76
2020/12/24 09:02:38;;;;;;;8.85;1.27;;;18.00;60.60;;;;;;4847182;29;20037;-75
2020/12/24 09:05:06;;;;;;;11.50;1.33;;;18.00;60.50;;;;;;4862301;29;20049;-76
2020/12/24 09:07:34;;;;;;;9.18;1.23;;;18.00;60.50;;;;;;4860455;29;20408;-75
2020/12/24 09:10:26;;;;;;;10.60;1.17;;;18.00;60.50;;;;;;4877675;29;20071;-75
2020/12/24 09:12:57;;;;;;;5.82;1.02;;;18.10;60.60;;;;;;4863088;29;20482;-76
2020/12/24 09:15:28;;;;;;;9.77;0.77;;;18.10;60.70;;;;;;4865953;29;20413;-74
2020/12/24 09:17:58;;;;;;;9.13;1.00;;;18.10;60.60;;;;;;4865493;29;20483;-77
2020/12/24 09:20:26;;;;;;;7.43;0.95;;;18.10;60.50;;;;;;4864826;29;20049;-75
2020/12/24 09:22:56;;;;;;;10.90;0.70;;;18.10;60.50;;;;;;4862138;29;20064;-75
2020/12/24 09:25:28;;;;;;;6.68;0.80;;;18.10;60.40;;;;;;4860499;29;20045;-76
2020/12/24 09:27:57;;;;;;;5.05;0.85;;;18.10;60.40;;;;;;4882896;29;20451;-76
2020/12/24 09:30:26;;;;;;;8.57;0.90;;;18.10;60.40;;;;;;4868980;29;20414;-76
2020/12/24 09:32:58;;;;;;;13.07;1.52;;;18.10;60.30;;;;;;4871601;29;20219;-75
2020/12/24 09:35:25;;;;;;;15.45;1.48;;;18.10;60.30;;;;;;4882516;29;20049;-75
2020/12/24 09:37:53;;;;;;;17.02;1.05;;;18.10;60.30;;;;;;4875093;29;20112;-76
2020/12/24 09:40:19;;;;;;;14.52;1.30;;;18.00;60.30;;;;;;4864878;29;20041;-77
2020/12/24 09:42:45;;;;;;;22.58;1.80;;;18.00;60.30;;;;;;4865447;29;20072;-80
2020/12/24 09:45:11;;;;;;;9.80;1.00;;;18.00;60.30;;;;;;4865169;29;20460;-75
2020/12/24 09:47:37;;;;;;;7.00;0.93;;;18.00;60.40;;;;;;4865199;29;20183;-76
2020/12/24 09:50:05;;;;;;;10.70;1.23;;;17.90;60.30;;;;;;4865763;29;20063;-76
2020/12/24 09:52:32;;;;;;;11.52;1.65;;;17.90;60.10;;;;;;4866361;29;20160;-75
2020/12/24 09:54:58;;;;;;;9.82;1.05;;;17.90;59.90;;;;;;4865466;29;20049;-75
2020/12/24 09:57:23;;;;;;;11.05;1.00;;;17.80;59.90;;;;;;4865798;29;20114;-75
2020/12/24 09:59:49;;;;;;;6.43;1.38;;;17.80;59.90;;;;;;4865202;29;20463;-75
2020/12/24 10:02:15;;;;;;;5.72;0.98;;;17.80;59.90;;;;;;4865373;29;20506;-76
2020/12/24 10:04:41;;;;;;;5.70;0.70;;;17.80;60.00;;;;;;4879863;29;20052;-77
2020/12/24 10:07:06;;;;;;;8.00;0.85;;;17.70;59.90;;;;;;4865196;29;20121;-76
2020/12/24 10:09:32;;;;;;;7.13;0.63;;;17.70;59.90;;;;;;4865119;29;20049;-75
2020/12/24 10:11:58;;;;;;;5.80;1.15;;;17.70;59.90;;;;;;4864099;29;20110;-75
2020/12/24 10:14:24;;;;;;;5.45;0.70;;;17.60;59.90;;;;;;4865051;29;20049;-77
2020/12/24 10:16:50;;;;;;;5.05;0.82;;;17.60;59.90;;;;;;4865060;29;20046;-76
2020/12/24 10:19:15;;;;;;;6.72;0.93;;;17.60;59.80;;;;;;4865247;29;20450;-76
2020/12/24 10:21:41;;;;;;;5.80;0.85;;;17.60;59.80;;;;;;4864603;29;20115;-76
2020/12/24 10:24:07;;;;;;;5.28;1.40;;;17.50;59.80;;;;;;4865195;29;20060;-76
2020/12/24 10:26:33;;;;;;;8.45;1.00;;;17.50;59.80;;;;;;4864692;29;20387;-75
2020/12/24 10:28:59;;;;;;;8.63;1.55;;;17.50;59.80;;;;;;4865019;29;20054;-74
2020/12/24 10:31:25;;;;;;;6.90;1.35;;;17.50;59.80;;;;;;4864953;29;20091;-76
2020/12/24 10:33:51;;;;;;;13.15;2.58;;;17.50;59.80;;;;;;4865042;29;20050;-75
2020/12/24 10:36:24;;;;;;;7.63;2.13;;;17.50;59.90;;;;;;4864700;29;20140;-76
2020/12/24 10:38:50;;;;;;;11.07;2.60;;;17.40;59.80;;;;;;4864586;29;20045;-76
2020/12/24 10:41:16;;;;;;;7.45;1.88;;;17.40;59.80;;;;;;4864426;29;20416;-76
2020/12/24 10:43:42;;;;;;;11.05;2.08;;;17.40;59.80;;;;;;4864452;29;20049;-77
2020/12/24 10:46:13;;;;;;;7.10;1.83;;;17.40;59.80;;;;;;4864778;29;20364;-75
2020/12/24 10:48:39;;;;;;;7.55;1.80;;;17.40;59.80;;;;;;4864707;29;20049;-75
2020/12/24 10:51:08;;;;;;;4.95;1.13;;;17.40;60.00;;;;;;4864959;29;20511;-76
2020/12/24 10:53:35;;;;;;;9.63;2.47;;;17.40;60.00;;;;;;4864227;29;20371;-75
2020/12/24 10:56:02;;;;;;;8.80;1.45;;;17.40;59.90;;;;;;4864201;29;20470;-76
2020/12/24 10:58:27;;;;;;;7.63;1.95;;;17.30;59.90;;;;;;4864396;29;20069;-75
2020/12/24 11:00:53;;;;;;;6.57;1.95;;;17.30;60.00;;;;;;4864482;29;20495;-75
2020/12/24 11:03:20;;;;;;;7.85;1.90;;;17.30;59.90;;;;;;4864601;29;20041;-76
2020/12/24 11:05:46;;;;;;;8.15;1.90;;;17.30;59.90;;;;;;4864604;29;20049;-76
2020/12/24 11:08:12;;;;;;;6.15;1.48;;;17.30;59.80;;;;;;4864372;29;20086;-76
2020/12/24 11:10:38;;;;;;;5.32;1.30;;;17.30;59.80;;;;;;4864163;29;20064;-76
2020/12/24 11:13:04;;;;;;;8.05;1.63;;;17.20;60.40;;;;;;4864779;29;20049;-76
2020/12/24 11:15:29;;;;;;;6.38;1.40;;;17.20;59.80;;;;;;4864308;29;20192;-76
2020/12/24 11:17:55;;;;;;;5.05;1.35;;;17.20;59.70;;;;;;4864140;29;20056;-75
2020/12/24 11:20:21;;;;;;;6.47;1.95;;;17.20;59.60;;;;;;4864244;29;20120;-76
2020/12/24 11:22:47;;;;;;;9.82;1.85;;;17.20;59.50;;;;;;4863887;29;20053;-75
2020/12/24 11:25:13;;;;;;;6.85;1.95;;;17.20;59.50;;;;;;4863797;29;20053;-76
2020/12/24 11:27:39;;;;;;;6.80;1.40;;;17.20;59.50;;;;;;4864117;29;20045;-76
2020/12/24 11:30:05;;;;;;;4.38;1.30;;;17.10;59.40;;;;;;4863969;29;20056;-75
2020/12/24 11:32:31;;;;;;;5.43;1.50;;;17.10;59.30;;;;;;4863776;29;20073;-76
2020/12/24 11:34:57;;;;;;;4.40;1.20;;;17.10;59.40;;;;;;4862743;29;20072;-76
2020/12/24 11:37:23;;;;;;;4.97;1.20;;;17.10;59.30;;;;;;4864027;29;20459;-74
2020/12/24 11:39:48;;;;;;;4.20;1.40;;;17.00;59.30;;;;;;4863461;29;20045;-75
2020/12/24 11:42:14;;;;;;;4.82;1.25;;;17.00;59.30;;;;;;4863544;29;20359;-75
2020/12/24 11:44:40;;;;;;;6.15;1.42;;;17.00;59.30;;;;;;4863666;29;20459;-77
2020/12/24 11:47:06;;;;;;;6.00;2.05;;;17.00;59.30;;;;;;4863849;29;20056;-76
2020/12/24 11:49:32;;;;;;;6.40;1.75;;;17.00;59.30;;;;;;4863895;29;20046;-75
2020/12/24 11:52:02;;;;;;;5.13;1.50;;;17.00;59.40;;;;;;4863374;29;20042;-76
2020/12/24 11:54:28;;;;;;;7.30;1.70;;;16.90;59.40;;;;;;4863678;29;20045;-76
2020/12/24 11:56:54;;;;;;;6.35;1.90;;;16.90;59.40;;;;;;4863434;29;20134;-75
2020/12/24 11:59:19;;;;;;;7.95;2.00;;;17.00;59.50;;;;;;4863589;29;20466;-75
2020/12/24 12:01:49;;;;;;;7.65;1.88;;;16.90;59.40;;;;;;4863126;29;20124;-74
2020/12/24 12:04:15;;;;;;;8.70;2.20;;;16.90;59.40;;;;;;4863537;29;20069;-75
2020/12/24 12:06:40;;;;;;;7.88;2.03;;;16.90;59.50;;;;;;4863586;29;20072;-77
2020/12/24 12:09:06;;;;;;;5.35;1.60;;;16.90;59.50;;;;;;4861956;29;20046;-76
2020/12/24 12:11:33;;;;;;;6.68;2.00;;;16.90;59.50;;;;;;4863513;29;20061;-76
2020/12/24 12:14:00;;;;;;;5.32;2.03;;;16.90;59.60;;;;;;4863366;29;20049;-76
2020/12/24 12:16:27;;;;;;;4.47;1.58;;;16.80;59.50;;;;;;4863354;29;20056;-75
2020/12/24 12:18:54;;;;;;;6.40;1.77;;;16.80;59.60;;;;;;4863815;29;20506;-75
2020/12/24 12:21:20;;;;;;;6.07;1.73;;;16.80;59.50;;;;;;4862265;29;20037;-75
2020/12/24 12:23:47;;;;;;;6.38;1.63;;;16.80;59.70;;;;;;4862800;29;20367;-75
2020/12/24 12:26:15;;;;;;;4.90;1.70;;;16.80;59.60;;;;;;4863023;29;20049;-75
2020/12/24 12:28:46;;;;;;;7.18;1.80;;;16.80;59.50;;;;;;4863022;29;20383;-76
2020/12/24 12:31:19;;;;;;;4.25;1.10;;;16.80;59.60;;;;;;4863253;29;20057;-76
2020/12/24 12:33:47;;;;;;;6.38;1.75;;;16.70;59.60;;;;;;4863757;29;20073;-75
2020/12/24 12:36:13;;;;;;;5.70;1.55;;;16.70;59.60;;;;;;4863092;29;20053;-76
2020/12/24 12:38:39;;;;;;;6.68;1.63;;;16.80;59.70;;;;;;4863174;29;20060;-75
2020/12/24 12:41:05;;;;;;;4.60;1.30;;;16.70;59.60;;;;;;4863092;29;20053;-75
2020/12/24 12:43:31;;;;;;;4.13;1.00;;;16.70;59.60;;;;;;4862910;29;20434;-75
2020/12/24 12:45:57;;;;;;;6.65;1.80;;;16.70;59.60;;;;;;4862084;29;20065;-76
2020/12/24 12:48:22;;;;;;;6.90;1.38;;;16.70;59.60;;;;;;4862705;29;20079;-74
2020/12/24 12:50:48;;;;;;;5.57;1.50;;;16.70;59.60;;;;;;4862281;29;20049;-75
2020/12/24 12:53:14;;;;;;;4.13;1.30;;;16.70;59.60;;;;;;4862535;29;20053;-76
2020/12/24 12:55:40;;;;;;;4.68;1.30;;;16.70;59.60;;;;;;4862222;29;20068;-75
2020/12/24 12:58:07;;;;;;;5.25;1.17;;;16.60;59.60;;;;;;4862853;29;20072;-76
2020/12/24 13:00:33;;;;;;;4.78;1.30;;;16.60;59.60;;;;;;4863408;29;20041;-78
2020/12/24 13:02:58;;;;;;;4.38;1.08;;;16.60;59.60;;;;;;4862740;29;20050;-76
2020/12/24 13:05:24;;;;;;;5.43;1.58;;;16.60;59.60;;;;;;4862442;29;20057;-75
2020/12/24 13:07:50;;;;;;;5.68;1.48;;;16.60;59.60;;;;;;4862448;29;20091;-75
2020/12/24 13:10:16;;;;;;;2.72;0.90;;;16.60;59.60;;;;;;4862641;29;20065;-75
2020/12/24 13:12:41;;;;;;;4.18;0.90;;;16.60;59.70;;;;;;4862911;29;20061;-76
2020/12/24 13:15:07;;;;;;;5.75;1.30;;;16.60;59.60;;;;;;4862348;29;20049;-76
2020/12/24 13:17:33;;;;;;;6.30;1.55;;;16.60;59.60;;;;;;4863200;29;20061;-75
2020/12/24 13:19:59;;;;;;;5.38;1.40;;;16.60;59.60;;;;;;4861846;29;20396;-76
2020/12/24 13:22:24;;;;;;;3.28;0.88;;;16.60;59.60;;;;;;4862325;29;20053;-75
2020/12/24 13:24:50;;;;;;;3.63;1.35;;;16.60;59.70;;;;;;4862542;29;20049;-76
2020/12/24 13:27:16;;;;;;;4.72;1.23;;;16.60;59.60;;;;;;4862287;29;20041;-75
2020/12/24 13:29:43;;;;;;;5.25;1.70;;;16.60;59.70;;;;;;4862733;29;20456;-76
2020/12/24 13:32:09;;;;;;;3.72;0.95;;;16.60;59.70;;;;;;4862606;29;20046;-75
2020/12/24 13:34:36;;;;;;;3.45;0.90;;;16.60;59.60;;;;;;4862290;29;20081;-76
2020/12/24 13:37:02;;;;;;;3.33;0.98;;;16.60;60.00;;;;;;4861993;29;20344;-76
2020/12/24 13:39:28;;;;;;;2.88;0.93;;;16.60;59.60;;;;;;4862499;29;20054;-75
2020/12/24 13:41:54;;;;;;;4.78;0.88;;;16.50;59.60;;;;;;4862244;29;20124;-76
2020/12/24 13:44:20;;;;;;;5.57;0.93;;;16.60;59.70;;;;;;4862067;29;20045;-76
2020/12/24 13:46:50;;;;;;;3.97;0.75;;;16.60;59.70;;;;;;4862152;29;20057;-75
2020/12/24 13:49:18;;;;;;;3.17;0.77;;;16.60;59.60;;;;;;4861899;29;20059;-77
2020/12/24 13:51:48;;;;;;;3.40;0.73;;;16.60;59.60;;;;;;4862570;29;20061;-76
2020/12/24 13:54:14;;;;;;;3.97;1.05;;;16.60;59.70;;;;;;4862422;29;20061;-77
2020/12/24 13:56:40;;;;;;;4.53;0.75;;;16.60;59.70;;;;;;4862292;29;20052;-76
2020/12/24 13:59:05;;;;;;;3.30;0.88;;;16.50;59.70;;;;;;4865386;29;20056;-75
2020/12/24 14:01:31;;;;;;;3.75;0.60;;;16.50;59.60;;;;;;4849364;29;20101;-77
2020/12/24 14:03:57;;;;;;;4.65;1.15;;;16.50;59.60;;;;;;4865741;29;20392;-75
2020/12/24 14:06:23;;;;;;;4.65;1.00;;;16.60;59.70;;;;;;4865448;29;20061;-75
2020/12/24 14:08:48;;;;;;;3.58;0.75;;;16.50;59.60;;;;;;4865572;29;20056;-75
2020/12/24 14:11:18;;;;;;;3.70;0.60;;;16.50;59.60;;;;;;4865477;29;20060;-76
2020/12/24 14:13:44;;;;;;;4.38;0.73;;;16.50;59.60;;;;;;4865458;29;20054;-75
2020/12/24 14:16:10;;;;;;;2.72;0.75;;;16.50;59.60;;;;;;4864418;29;20048;-74
2020/12/24 14:18:36;;;;;;;3.80;0.75;;;16.50;59.60;;;;;;4865511;29;20410;-76
2020/12/24 14:21:02;;;;;;;4.53;0.95;;;16.50;59.60;;;;;;4865255;29;20049;-75
2020/12/24 14:23:28;;;;;;;4.78;1.08;;;16.50;59.60;;;;;;4865776;29;20090;-77
2020/12/24 14:25:54;;;;;;;3.38;0.93;;;16.40;59.60;;;;;;4865323;29;20049;-75
2020/12/24 14:28:19;;;;;;;2.40;0.57;;;16.40;59.50;;;;;;4865111;29;20113;-74
2020/12/24 14:30:45;;;;;;;4.88;0.85;;;16.40;59.50;;;;;;4864926;29;20077;-76
2020/12/24 14:33:11;;;;;;;2.70;0.73;;;16.40;59.50;;;;;;4865051;29;20456;-76
2020/12/24 14:35:37;;;;;;;3.05;0.98;;;16.40;59.50;;;;;;4865045;29;20096;-76
2020/12/24 14:38:03;;;;;;;3.45;0.95;;;16.40;59.50;;;;;;4865200;29;20077;-76
2020/12/24 14:40:29;;;;;;;2.75;0.90;;;16.30;59.40;;;;;;4865145;29;20121;-75
2020/12/24 14:42:56;;;;;;;4.57;1.02;;;16.40;59.40;;;;;;4864926;29;20483;-75
2020/12/24 14:45:22;;;;;;;2.40;0.73;;;16.30;59.30;;;;;;4864470;29;20077;-76